Time;durP1;ratioP1;P1;durP2;ratioP2;P2;SDS_P1;SDS_P2;PMS_P1;PMS_P2;Temp;Humidity;BMP_temperature;BMP_pressure;BME280_temperature;BME280_humidity;BME280_pressure;Samples;Min_cycle;Max_cycle;Signal;HPM_P1;HPM_P2
2024/02/24 00:03:43;;;;;;;4.65;4.25;;;;;;;;;;10420386;27;20071;-63
2024/02/24 00:08:42;;;;;;;7.43;4.63;;;;;;;;;;10419710;27;20608;-62
2024/02/24 00:13:40;;;;;;;8.43;4.70;;;;;;;;;;10412113;27;20082;-63
2024/02/24 00:18:38;;;;;;;4.80;4.40;;;;;;;;;;10418745;27;20078;-63
2024/02/24 00:23:38;;;;;;;5.47;4.75;;;;;;;;;;10416667;27;20071;-62
2024/02/24 00:28:36;;;;;;;6.03;4.25;;;;;;;;;;10399465;27;20532;-62
2024/02/24 00:33:35;;;;;;;5.85;4.63;;;;;;;;;;10416890;27;20071;-62
2024/02/24 00:38:33;;;;;;;5.80;4.60;;;;;;;;;;10412724;27;20116;-63
2024/02/24 00:43:32;;;;;;;5.55;5.03;;;;;;;;;;10417106;27;20078;-64
2024/02/24 00:48:31;;;;;;;5.95;4.97;;;;;;;;;;10419200;27;20079;-64
2024/02/24 00:53:29;;;;;;;4.63;4.22;;;;;;;;;;10417002;27;20075;-64
2024/02/24 00:58:27;;;;;;;6.40;5.05;;;;;;;;;;10415568;27;20062;-63
2024/02/24 01:03:27;;;;;;;5.25;4.75;;;;;;;;;;10419384;27;20078;-65
2024/02/24 01:08:25;;;;;;;5.05;4.38;;;;;;;;;;10418444;27;20074;-63
2024/02/24 01:13:23;;;;;;;4.65;4.25;;;;;;;;;;10417679;27;20067;-64
2024/02/24 01:18:23;;;;;;;4.93;4.40;;;;;;;;;;10415811;27;20086;-63
2024/02/24 01:23:24;;;;;;;5.50;5.00;;;;;;;;;;10418630;27;20082;-63
2024/02/24 01:28:22;;;;;;;5.47;4.95;;;;;;;;;;10413635;27;20082;-63
2024/02/24 01:33:20;;;;;;;5.55;5.05;;;;;;;;;;10416987;27;20067;-64
2024/02/24 01:38:19;;;;;;;6.18;4.70;;;;;;;;;;10416393;27;20063;-63
2024/02/24 01:43:29;;;;;;;5.85;4.88;;;;;;;;;;10413364;27;20062;-63
2024/02/24 01:48:27;;;;;;;5.07;4.53;;;;;;;;;;10413538;27;20063;-64
2024/02/24 01:53:26;;;;;;;5.68;5.05;;;;;;;;;;10415711;27;20103;-65
2024/02/24 01:58:25;;;;;;;6.82;4.88;;;;;;;;;;10413855;27;20066;-64
2024/02/24 02:03:25;;;;;;;5.15;4.72;;;;;;;;;;10414567;27;20082;-63
2024/02/24 02:08:23;;;;;;;5.28;4.72;;;;;;;;;;10415360;27;20105;-64
2024/02/24 02:13:22;;;;;;;4.97;4.47;;;;;;;;;;10413130;27;20066;-64
2024/02/24 02:18:21;;;;;;;4.50;4.10;;;;;;;;;;10413971;27;20550;-63
2024/02/24 02:23:21;;;;;;;5.20;4.70;;;;;;;;;;10413295;27;20469;-62
2024/02/24 02:28:19;;;;;;;5.57;5.00;;;;;;;;;;10409702;27;20079;-63
2024/02/24 02:33:17;;;;;;;5.63;5.00;;;;;;;;;;10408211;27;20063;-63
2024/02/24 02:38:16;;;;;;;5.88;4.55;;;;;;;;;;10397472;27;20073;-63
2024/02/24 02:43:16;;;;;;;5.25;4.75;;;;;;;;;;10396033;27;20071;-62
2024/02/24 02:48:14;;;;;;;7.10;4.90;;;;;;;;;;10410989;27;20672;-63
2024/02/24 02:53:12;;;;;;;6.88;6.15;;;;;;;;;;10412606;27;20066;-63
2024/02/24 02:58:11;;;;;;;6.75;6.15;;;;;;;;;;10412115;27;20066;-63
2024/02/24 03:03:11;;;;;;;6.03;5.13;;;;;;;;;;10411841;27;20059;-63
2024/02/24 03:08:09;;;;;;;5.78;5.28;;;;;;;;;;10411621;27;20492;-64
2024/02/24 03:13:07;;;;;;;5.85;5.25;;;;;;;;;;10414427;27;20069;-62
2024/02/24 03:18:06;;;;;;;12.20;5.68;;;;;;;;;;10411516;28;20078;-62
2024/02/24 03:23:06;;;;;;;5.13;4.63;;;;;;;;;;10411499;28;20488;-62
2024/02/24 03:28:05;;;;;;;5.10;4.65;;;;;;;;;;10413339;28;20672;-63
2024/02/24 03:33:03;;;;;;;8.32;6.47;;;;;;;;;;10406016;28;20075;-62
2024/02/24 03:38:01;;;;;;;7.30;6.60;;;;;;;;;;10412436;28;20074;-62
2024/02/24 03:43:01;;;;;;;6.10;5.57;;;;;;;;;;10413297;28;20074;-62
2024/02/24 03:47:59;;;;;;;12.10;5.60;;;;;;;;;;10407463;28;20523;-62
2024/02/24 03:52:58;;;;;;;5.30;4.55;;;;;;;;;;10394429;28;20066;-62
2024/02/24 03:57:56;;;;;;;4.82;4.35;;;;;;;;;;10409736;28;20460;-62
2024/02/24 04:02:55;;;;;;;4.65;4.25;;;;;;;;;;10407516;28;20078;-63
2024/02/24 04:07:53;;;;;;;7.72;5.10;;;;;;;;;;10413163;28;20067;-64
2024/02/24 04:12:52;;;;;;;5.90;4.90;;;;;;;;;;10411348;28;20072;-64
2024/02/24 04:17:50;;;;;;;5.35;4.72;;;;;;;;;;10410049;28;20067;-62
2024/02/24 04:22:50;;;;;;;4.85;4.38;;;;;;;;;;10415742;27;20092;-63
2024/02/24 04:27:48;;;;;;;5.10;4.60;;;;;;;;;;10418265;27;20086;-62
2024/02/24 04:32:46;;;;;;;4.80;4.40;;;;;;;;;;10419233;27;20078;-64
2024/02/24 04:37:45;;;;;;;5.40;4.90;;;;;;;;;;10418263;27;20157;-62
2024/02/24 04:42:44;;;;;;;4.35;3.97;;;;;;;;;;10401425;27;20066;-64
2024/02/24 04:47:42;;;;;;;4.97;4.55;;;;;;;;;;10400951;27;20097;-64
2024/02/24 04:52:41;;;;;;;4.78;4.35;;;;;;;;;;10416631;27;20066;-64
2024/02/24 04:57:39;;;;;;;4.97;4.25;;;;;;;;;;10412711;27;20071;-62
2024/02/24 05:02:39;;;;;;;35.35;7.18;;;;;;;;;;10413515;27;20519;-61
2024/02/24 05:07:37;;;;;;;13.35;7.97;;;;;;;;;;10418311;27;20070;-63
2024/02/24 05:12:36;;;;;;;16.20;8.25;;;;;;;;;;10416656;27;20071;-62
2024/02/24 05:17:34;;;;;;;11.13;7.28;;;;;;;;;;10418094;27;20078;-63
2024/02/24 05:22:34;;;;;;;11.10;7.93;;;;;;;;;;10423964;27;20066;-64
2024/02/24 05:27:32;;;;;;;14.82;11.70;;;;;;;;;;10418459;27;20491;-65
2024/02/24 05:32:30;;;;;;;14.07;9.85;;;;;;;;;;10415698;27;20071;-64
2024/02/24 05:37:28;;;;;;;11.27;9.15;;;;;;;;;;10415659;27;20086;-63
2024/02/24 05:42:29;;;;;;;7.10;6.03;;;;;;;;;;10417986;27;20075;-64
2024/02/24 05:47:27;;;;;;;10.30;6.47;;;;;;;;;;10418504;27;20078;-63
2024/02/24 05:52:26;;;;;;;9.45;8.13;;;;;;;;;;10418966;27;20082;-64
2024/02/24 05:57:25;;;;;;;14.15;8.35;;;;;;;;;;10418292;27;20077;-63
2024/02/24 06:02:25;;;;;;;10.32;5.78;;;;;;;;;;10416778;27;20078;-62
2024/02/24 06:07:23;;;;;;;7.38;4.53;;;;;;;;;;10416240;27;20618;-63
2024/02/24 06:12:21;;;;;;;5.55;5.05;;;;;;;;;;10409862;27;20582;-63
2024/02/24 06:17:19;;;;;;;18.23;16.63;;;;;;;;;;10412385;27;20081;-64
2024/02/24 06:22:19;;;;;;;8.00;7.20;;;;;;;;;;10414158;27;20075;-64
2024/02/24 06:27:17;;;;;;;7.20;6.18;;;;;;;;;;10418306;27;20066;-64
2024/02/24 06:32:15;;;;;;;6.30;5.40;;;;;;;;;;10413198;27;20058;-63
2024/02/24 06:37:14;;;;;;;5.32;4.82;;;;;;;;;;10417046;27;20129;-63
2024/02/24 06:42:13;;;;;;;7.13;5.03;;;;;;;;;;10413479;27;20098;-63
2024/02/24 06:47:11;;;;;;;6.50;5.47;;;;;;;;;;10415468;27;20074;-63
2024/02/24 06:52:25;;;;;;;5.57;4.97;;;;;;;;;;10417666;27;20067;-64
2024/02/24 06:57:25;;;;;;;7.70;4.55;;;;;;;;;;10408368;27;20649;-63
2024/02/24 07:02:23;;;;;;;7.32;4.90;;;;;;;;;;10398917;27;20063;-64
2024/02/24 07:07:21;;;;;;;5.28;4.78;;;;;;;;;;10412910;27;20083;-64
2024/02/24 07:12:20;;;;;;;5.82;4.95;;;;;;;;;;10414857;27;20066;-63
2024/02/24 07:17:20;;;;;;;4.93;4.45;;;;;;;;;;10423018;27;20066;-63
2024/02/24 07:22:19;;;;;;;7.32;4.75;;;;;;;;;;10418100;28;20086;-63
2024/02/24 07:27:17;;;;;;;7.15;4.47;;;;;;;;;;10403142;27;20081;-64
2024/02/24 07:32:15;;;;;;;6.80;4.22;;;;;;;;;;10416065;28;20105;-63
2024/02/24 07:37:15;;;;;;;6.68;4.18;;;;;;;;;;10418147;28;20464;-63
2024/02/24 07:42:13;;;;;;;5.22;4.72;;;;;;;;;;10420455;28;20071;-64
2024/02/24 07:47:11;;;;;;;5.22;4.72;;;;;;;;;;10417444;28;20672;-63
2024/02/24 07:52:10;;;;;;;4.72;4.20;;;;;;;;;;10419259;28;20472;-64
2024/02/24 07:57:09;;;;;;;4.43;3.85;;;;;;;;;;10412545;27;20089;-64
2024/02/24 08:02:07;;;;;;;4.35;3.95;;;;;;;;;;10421785;27;20505;-65
2024/02/24 08:07:06;;;;;;;5.00;3.30;;;;;;;;;;10420909;27;20078;-64
2024/02/24 08:12:05;;;;;;;3.63;3.33;;;;;;;;;;10424762;27;20070;-64
2024/02/24 08:17:05;;;;;;;3.50;3.20;;;;;;;;;;10424494;27;20480;-64
2024/02/24 08:22:03;;;;;;;3.53;3.17;;;;;;;;;;10424080;27;20079;-64
2024/02/24 08:27:05;;;;;;;3.65;3.33;;;;;;;;;;10424614;27;20070;-63
2024/02/24 08:32:06;;;;;;;4.43;3.65;;;;;;;;;;10419025;27;20067;-63
2024/02/24 08:37:06;;;;;;;5.32;3.60;;;;;;;;;;10423240;27;20063;-63
2024/02/24 08:42:04;;;;;;;4.65;3.80;;;;;;;;;;10423380;27;20063;-63
2024/02/24 08:47:03;;;;;;;3.47;3.17;;;;;;;;;;10424543;27;20063;-63
2024/02/24 08:52:03;;;;;;;4.68;4.22;;;;;;;;;;10422005;27;20078;-63
2024/02/24 08:57:01;;;;;;;6.40;5.05;;;;;;;;;;10422874;27;20131;-62
2024/02/24 09:02:01;;;;;;;11.63;9.38;;;;;;;;;;10423137;27;20078;-63
2024/02/24 09:06:59;;;;;;;10.10;7.53;;;;;;;;;;10424791;27;20059;-63
2024/02/24 09:11:59;;;;;;;5.30;4.50;;;;;;;;;;10423114;27;20067;-64
2024/02/24 09:16:59;;;;;;;8.38;5.32;;;;;;;;;;10423155;27;20504;-63
2024/02/24 09:21:58;;;;;;;9.15;4.90;;;;;;;;;;10420771;27;20082;-63
2024/02/24 09:26:59;;;;;;;8.25;5.40;;;;;;;;;;10420677;27;20493;-64
2024/02/24 09:31:58;;;;;;;8.40;6.25;;;;;;;;;;10420902;27;20078;-63
2024/02/24 09:36:57;;;;;;;10.45;7.15;;;;;;;;;;10421819;27;20075;-64
2024/02/24 09:47:30;;;;;;;5.00;4.50;;;;;;;;;;10420419;27;20646;-62
2024/02/24 09:52:36;;;;;;;10.05;7.55;;;;;;;;;;10423147;27;20082;-63
2024/02/24 09:57:43;;;;;;;;;;;;;;;;;;10419740;27;20061;-62
2024/02/24 10:02:43;;;;;;;2.83;2.63;;;;;;;;;;10422129;27;20392;-63
2024/02/24 10:07:46;;;;;;;6.80;5.45;;;;;;;;;;10420656;27;20073;-63
2024/02/24 10:13:01;;;;;;;12.88;8.95;;;;;;;;;;10418207;27;20571;-63
2024/02/24 10:18:02;;;;;;;;;;;;;;;;;;10411390;27;20483;-62
2024/02/24 10:23:04;;;;;;;3.03;2.75;;;;;;;;;;10416597;27;19954;-62
2024/02/24 10:28:06;;;;;;;3.85;2.92;;;;;;;;;;10409743;27;20075;-63
2024/02/24 10:33:05;;;;;;;5.20;4.70;;;;;;;;;;10415205;27;20070;-63
2024/02/24 10:38:09;;;;;;;3.95;3.03;;;;;;;;;;10418189;27;20074;-63
2024/02/24 10:43:28;;;;;;;6.55;5.32;;;;;;;;;;10417629;27;20465;-64
2024/02/24 10:48:30;;;;;;;6.22;3.65;;;;;;;;;;10415786;27;20071;-64
2024/02/24 10:53:31;;;;;;;14.27;3.65;;;;;;;;;;10419236;27;20067;-63
2024/02/24 10:58:35;;;;;;;20.30;6.40;;;;;;;;;;10417003;27;20082;-63
2024/02/24 11:03:35;;;;;;;5.13;2.55;;;;;;;;;;10413274;27;20078;-62
2024/02/24 11:08:41;;;;;;;3.63;3.03;;;;;;;;;;10418153;27;20449;-63
2024/02/24 11:13:45;;;;;;;3.22;2.72;;;;;;;;;;10410808;27;20078;-63
2024/02/24 11:19:10;;;;;;;4.78;3.45;;;;;;;;;;10411725;27;20504;-63
2024/02/24 11:24:17;;;;;;;3.55;2.92;;;;;;;;;;10412758;28;20075;-63
2024/02/24 11:29:18;;;;;;;6.88;2.65;;;;;;;;;;10412869;28;20493;-62
2024/02/24 11:34:22;;;;;;;5.57;3.85;;;;;;;;;;10416291;27;20078;-62
2024/02/24 11:39:26;;;;;;;3.25;2.50;;;;;;;;;;10421286;27;20496;-62
2024/02/24 11:44:24;;;;;;;2.33;2.10;;;;;;;;;;10420787;27;20329;-63
2024/02/24 11:49:27;;;;;;;3.60;2.58;;;;;;;;;;10423872;27;20079;-62
2024/02/24 11:54:31;;;;;;;2.72;2.17;;;;;;;;;;10425924;27;20509;-62
2024/02/24 11:59:38;;;;;;;4.63;3.08;;;;;;;;;;10428949;27;20078;-62
2024/02/24 12:04:37;;;;;;;17.20;12.13;;;;;;;;;;10424989;27;20467;-63
2024/02/24 12:09:37;;;;;;;3.15;2.38;;;;;;;;;;10423168;27;20484;-62
2024/02/24 12:14:39;;;;;;;5.85;4.32;;;;;;;;;;10424918;27;20071;-63
2024/02/24 12:19:51;;;;;;;3.55;2.40;;;;;;;;;;10423911;27;20478;-63
2024/02/24 12:24:52;;;;;;;4.43;2.10;;;;;;;;;;10424609;27;20066;-63
2024/02/24 12:29:54;;;;;;;4.30;1.80;;;;;;;;;;10425165;27;20078;-62
2024/02/24 12:35:01;;;;;;;4.47;2.60;;;;;;;;;;10422094;27;20098;-63
2024/02/24 12:40:04;;;;;;;2.65;2.20;;;;;;;;;;10418396;27;20535;-63
2024/02/24 12:45:02;;;;;;;2.30;2.10;;;;;;;;;;10420372;27;20074;-63
2024/02/24 12:50:01;;;;;;;3.70;3.05;;;;;;;;;;10421198;27;20346;-63
2024/02/24 12:55:03;;;;;;;17.90;11.38;;;;;;;;;;10423975;27;20445;-63
2024/02/24 13:00:04;;;;;;;5.00;4.30;;;;;;;;;;10418263;27;20078;-63
2024/02/24 13:05:03;;;;;;;4.63;2.90;;;;;;;;;;10420631;27;20068;-63
2024/02/24 13:10:05;;;;;;;3.40;2.35;;;;;;;;;;10421565;27;20078;-63
2024/02/24 13:15:03;;;;;;;4.57;2.85;;;;;;;;;;10422445;27;20079;-62
2024/02/24 13:20:02;;;;;;;3.40;2.70;;;;;;;;;;10420926;27;20090;-62
2024/02/24 13:25:07;;;;;;;2.78;2.20;;;;;;;;;;10403559;27;20512;-62
2024/02/24 13:30:08;;;;;;;5.13;2.63;;;;;;;;;;10421582;27;20090;-62
2024/02/24 13:35:07;;;;;;;4.47;2.78;;;;;;;;;;10420997;27;20085;-62
2024/02/24 13:40:09;;;;;;;6.93;3.05;;;;;;;;;;10419328;27;20071;-62
2024/02/24 13:45:09;;;;;;;3.10;2.80;;;;;;;;;;10418353;27;20098;-62
2024/02/24 13:50:14;;;;;;;3.70;3.35;;;;;;;;;;10417801;27;20075;-61
2024/02/24 13:55:16;;;;;;;3.83;2.78;;;;;;;;;;10421390;27;20059;-62
2024/02/24 14:00:17;;;;;;;2.50;2.30;;;;;;;;;;10419937;27;20491;-62
2024/02/24 14:05:15;;;;;;;3.58;2.58;;;;;;;;;;10420452;27;20164;-62
2024/02/24 14:10:15;;;;;;;2.92;2.60;;;;;;;;;;10416457;27;20081;-62
2024/02/24 14:15:13;;;;;;;5.65;3.95;;;;;;;;;;10418891;27;20074;-62
2024/02/24 14:20:12;;;;;;;8.00;6.13;;;;;;;;;;10417236;27;20091;-62
2024/02/24 14:25:26;;;;;;;7.95;6.45;;;;;;;;;;10419182;27;20082;-62
2024/02/24 14:30:37;;;;;;;3.50;2.90;;;;;;;;;;10416072;27;20063;-62
2024/02/24 14:35:44;;;;;;;5.70;4.60;;;;;;;;;;10417999;27;20078;-62
2024/02/24 14:40:51;;;;;;;8.35;5.97;;;;;;;;;;10416042;27;20507;-62
2024/02/24 14:45:55;;;;;;;13.23;8.80;;;;;;;;;;10413312;27;20070;-63
2024/02/24 14:51:06;;;;;;;18.90;13.77;;;;;;;;;;10419682;27;20437;-62
2024/02/24 14:56:06;;;;;;;41.70;25.50;;;;;;;;;;10419892;27;20082;-63
2024/02/24 15:01:05;;;;;;;23.08;12.68;;;;;;;;;;10415348;27;20063;-63
2024/02/24 15:06:07;;;;;;;13.38;8.63;;;;;;;;;;10417377;27;20066;-63
2024/02/24 15:11:08;;;;;;;10.38;7.05;;;;;;;;;;10417270;27;20071;-62
2024/02/24 15:16:11;;;;;;;16.77;9.55;;;;;;;;;;10415669;27;20082;-63
2024/02/24 15:21:12;;;;;;;;;;;;;;;;;;10413298;27;20109;-63
2024/02/24 15:26:12;;;;;;;34.67;22.38;;;;;;;;;;10414157;28;20369;-61
2024/02/24 15:31:10;;;;;;;35.92;23.33;;;;;;;;;;10414669;28;20559;-61
2024/02/24 15:36:09;;;;;;;34.40;24.80;;;;;;;;;;10413928;28;20081;-61
2024/02/24 15:41:08;;;;;;;23.63;16.75;;;;;;;;;;10415136;28;20477;-62
2024/02/24 15:46:08;;;;;;;12.52;9.80;;;;;;;;;;10412633;28;20129;-62
2024/02/24 15:51:08;;;;;;;15.85;10.48;;;;;;;;;;10413697;28;20520;-63
2024/02/24 15:56:11;;;;;;;;;;;;;;;;;;10416101;28;20078;-63
2024/02/24 16:01:15;;;;;;;24.15;14.82;;;;;;;;;;10407362;28;20039;-60
2024/02/24 16:06:15;;;;;;;28.25;22.63;;;;;;;;;;10407456;28;20059;-64
2024/02/24 16:11:16;;;;;;;17.95;15.10;;;;;;;;;;10410224;28;20085;-63
2024/02/24 16:16:19;;;;;;;15.43;10.30;;;;;;;;;;10410671;28;20067;-63
2024/02/24 16:21:20;;;;;;;15.32;11.15;;;;;;;;;;10417852;27;20083;-63
2024/02/24 16:26:18;;;;;;;17.98;12.20;;;;;;;;;;10421546;27;20067;-62
2024/02/24 16:31:25;;;;;;;15.23;13.57;;;;;;;;;;10423792;27;20066;-63
2024/02/24 16:36:27;;;;;;;7.93;7.05;;;;;;;;;;10423662;27;20067;-63
2024/02/24 16:41:27;;;;;;;14.23;7.93;;;;;;;;;;10422778;27;20633;-63
2024/02/24 16:46:27;;;;;;;12.35;10.00;;;;;;;;;;10424075;27;20083;-64
2024/02/24 16:51:28;;;;;;;13.85;10.10;;;;;;;;;;10423568;27;20071;-64
2024/02/24 16:56:26;;;;;;;14.20;10.18;;;;;;;;;;10423529;27;20517;-65
2024/02/24 17:01:24;;;;;;;8.77;7.88;;;;;;;;;;10415318;27;20468;-64
2024/02/24 17:06:24;;;;;;;14.25;10.23;;;;;;;;;;10421987;27;20075;-63
2024/02/24 17:11:23;;;;;;;10.40;6.22;;;;;;;;;;10425041;27;20063;-63
2024/02/24 17:16:21;;;;;;;10.85;5.85;;;;;;;;;;10424926;27;20516;-63
2024/02/24 17:21:21;;;;;;;17.85;7.00;;;;;;;;;;10419970;27;20588;-63
2024/02/24 17:26:22;;;;;;;7.60;6.85;;;;;;;;;;10421178;27;20288;-63
2024/02/24 17:31:21;;;;;;;7.20;6.50;;;;;;;;;;10417075;27;20524;-63
2024/02/24 17:36:22;;;;;;;12.32;7.72;;;;;;;;;;10416702;27;20071;-64
2024/02/24 17:41:37;;;;;;;9.73;8.73;;;;;;;;;;10420131;27;20071;-64
2024/02/24 17:46:47;;;;;;;7.80;6.45;;;;;;;;;;10421661;27;20496;-64
2024/02/24 17:51:57;;;;;;;5.75;4.57;;;;;;;;;;10420351;27;20074;-64
2024/02/24 17:57:00;;;;;;;12.23;10.93;;;;;;;;;;10422336;27;20508;-63
2024/02/24 18:02:03;;;;;;;9.57;5.75;;;;;;;;;;10421299;27;20075;-64
2024/02/24 18:07:02;;;;;;;7.75;3.65;;;;;;;;;;10423867;27;20071;-64
2024/02/24 18:12:02;;;;;;;3.65;2.85;;;;;;;;;;10419585;27;20074;-63
2024/02/24 18:17:10;;;;;;;6.82;4.75;;;;;;;;;;10417070;27;20067;-64
2024/02/24 18:22:13;;;;;;;7.18;5.05;;;;;;;;;;10418318;27;20074;-64
2024/02/24 18:27:14;;;;;;;10.70;4.38;;;;;;;;;;10419767;27;20093;-64
2024/02/24 18:32:14;;;;;;;5.03;4.07;;;;;;;;;;10396570;27;20082;-63
2024/02/24 18:37:13;;;;;;;5.75;3.55;;;;;;;;;;10411279;27;20078;-63
2024/02/24 18:42:20;;;;;;;3.67;3.08;;;;;;;;;;10394529;27;20487;-64
2024/02/24 18:47:21;;;;;;;3.42;3.13;;;;;;;;;;10415219;27;20075;-64
2024/02/24 18:52:24;;;;;;;9.93;6.95;;;;;;;;;;10412646;27;20149;-63
2024/02/24 18:57:31;;;;;;;6.00;4.13;;;;;;;;;;10403553;27;20075;-64
2024/02/24 19:02:38;;;;;;;8.18;5.43;;;;;;;;;;10393656;27;20531;-64
2024/02/24 19:07:39;;;;;;;3.97;3.40;;;;;;;;;;10402928;27;20077;-64
2024/02/24 19:12:38;;;;;;;8.05;7.25;;;;;;;;;;10403560;27;20649;-64
2024/02/24 19:17:37;;;;;;;3.92;3.42;;;;;;;;;;10418280;27;20074;-63
2024/02/24 19:22:35;;;;;;;7.07;3.75;;;;;;;;;;10413467;27;20078;-64
2024/02/24 19:27:33;;;;;;;4.32;3.25;;;;;;;;;;10416029;28;20116;-64
2024/02/24 19:32:33;;;;;;;4.70;4.13;;;;;;;;;;10414966;28;20071;-63
2024/02/24 19:37:31;;;;;;;8.15;4.88;;;;;;;;;;10402149;28;20452;-63
2024/02/24 19:42:31;;;;;;;5.72;4.20;;;;;;;;;;10411292;28;20085;-63
2024/02/24 19:47:29;;;;;;;8.73;4.70;;;;;;;;;;10411934;28;20086;-64
2024/02/24 19:52:29;;;;;;;6.03;5.30;;;;;;;;;;10413681;27;20063;-63
2024/02/24 19:57:27;;;;;;;7.32;6.15;;;;;;;;;;10420817;27;20447;-64
2024/02/24 20:02:25;;;;;;;6.32;5.68;;;;;;;;;;10421942;27;20071;-65
2024/02/24 20:07:24;;;;;;;4.97;4.30;;;;;;;;;;10422962;27;20075;-63
2024/02/24 20:12:24;;;;;;;7.07;5.90;;;;;;;;;;10421952;27;20075;-63
2024/02/24 20:17:22;;;;;;;7.07;5.65;;;;;;;;;;10432641;27;20079;-64
2024/02/24 20:22:21;;;;;;;7.32;5.20;;;;;;;;;;10421617;27;20090;-62
2024/02/24 20:27:19;;;;;;;10.18;6.20;;;;;;;;;;10411277;27;20414;-63
2024/02/24 20:32:19;;;;;;;8.10;6.15;;;;;;;;;;10421041;27;20547;-63
2024/02/24 20:37:17;;;;;;;8.30;5.60;;;;;;;;;;10426561;27;20500;-63
2024/02/24 20:42:15;;;;;;;8.27;4.22;;;;;;;;;;10421705;27;20075;-63
2024/02/24 20:47:13;;;;;;;5.68;3.85;;;;;;;;;;10421744;27;20075;-63
2024/02/24 20:52:13;;;;;;;5.13;4.30;;;;;;;;;;10429754;27;20465;-63
2024/02/24 20:57:11;;;;;;;5.97;4.80;;;;;;;;;;10432771;27;20078;-64
2024/02/24 21:02:10;;;;;;;11.00;4.22;;;;;;;;;;10416921;27;21211;-64
2024/02/24 21:07:08;;;;;;;5.65;3.42;;;;;;;;;;10426567;27;20079;-63
2024/02/24 21:12:10;;;;;;;7.10;3.28;;;;;;;;;;10432617;27;20085;-64
2024/02/24 21:17:08;;;;;;;5.07;4.13;;;;;;;;;;10424816;27;20079;-64
2024/02/24 21:22:07;;;;;;;8.10;3.60;;;;;;;;;;10416955;27;20071;-63
2024/02/24 21:27:05;;;;;;;9.23;4.40;;;;;;;;;;10413952;27;20079;-63
2024/02/24 21:32:05;;;;;;;6.43;4.40;;;;;;;;;;10415327;27;20074;-62
2024/02/24 21:37:03;;;;;;;6.13;3.60;;;;;;;;;;10412491;27;20075;-63
2024/02/24 21:42:02;;;;;;;5.80;3.42;;;;;;;;;;10413220;27;20067;-63
2024/02/24 21:47:00;;;;;;;4.82;3.78;;;;;;;;;;10413010;27;20082;-63
2024/02/24 21:51:59;;;;;;;4.15;3.25;;;;;;;;;;10414282;27;20086;-63
2024/02/24 21:56:58;;;;;;;5.05;3.33;;;;;;;;;;10416754;27;20077;-64
2024/02/24 22:01:57;;;;;;;5.78;4.10;;;;;;;;;;10416321;27;20074;-64
2024/02/24 22:06:56;;;;;;;5.30;4.20;;;;;;;;;;10413656;27;20066;-63
2024/02/24 22:11:56;;;;;;;15.05;10.35;;;;;;;;;;10412872;27;20066;-63
2024/02/24 22:16:54;;;;;;;31.85;19.42;;;;;;;;;;10391705;27;20098;-63
2024/02/24 22:21:53;;;;;;;24.80;17.25;;;;;;;;;;10415022;27;20079;-63
2024/02/24 22:26:52;;;;;;;22.95;16.50;;;;;;;;;;10397605;27;20101;-62
2024/02/24 22:31:52;;;;;;;22.08;17.35;;;;;;;;;;10415858;27;20063;-63
2024/02/24 22:36:51;;;;;;;25.85;17.35;;;;;;;;;;10413653;27;20070;-63
2024/02/24 22:41:50;;;;;;;21.15;16.02;;;;;;;;;;10417503;27;20074;-63
2024/02/24 22:46:49;;;;;;;17.77;13.25;;;;;;;;;;10416835;27;20067;-64
2024/02/24 22:51:49;;;;;;;47.65;16.15;;;;;;;;;;10413904;27;20074;-64
2024/02/24 22:56:47;;;;;;;24.65;12.40;;;;;;;;;;10412570;27;20078;-65
2024/02/24 23:01:45;;;;;;;13.55;10.55;;;;;;;;;;10412929;27;20067;-62
2024/02/24 23:06:43;;;;;;;13.10;10.38;;;;;;;;;;10413552;27;20066;-63
2024/02/24 23:11:43;;;;;;;9.48;8.20;;;;;;;;;;10412181;27;20081;-63
2024/02/24 23:16:41;;;;;;;9.43;7.35;;;;;;;;;;10415847;27;20079;-63
2024/02/24 23:21:40;;;;;;;10.57;8.68;;;;;;;;;;10412409;27;20286;-63
2024/02/24 23:26:39;;;;;;;14.48;8.32;;;;;;;;;;10410848;27;20078;-63
2024/02/24 23:31:39;;;;;;;7.50;5.80;;;;;;;;;;10426002;27;20106;-64
2024/02/24 23:36:37;;;;;;;5.38;3.85;;;;;;;;;;10427498;27;20077;-63
2024/02/24 23:41:36;;;;;;;3.80;3.50;;;;;;;;;;10427798;27;20055;-63
2024/02/24 23:46:34;;;;;;;11.57;9.68;;;;;;;;;;10425657;27;20075;-62
2024/02/24 23:51:36;;;;;;;12.30;10.55;;;;;;;;;;10426095;27;20497;-63
2024/02/24 23:56:35;;;;;;;14.63;10.80;;;;;;;;;;10427136;27;20520;-63
